Terminal Aerodrome Forecast
Issued by NWS Goodland, KS

Home | Current Version | Previous Version | Text Only | Print | Product List | Glossary On
Versions: 1 2 3 4 5 6 7 8 9 10 11 12 13 14 15 16
864
FTUS43 KGLD 261733
TAFGLD
TAF
KGLD 261733Z 2618/2718 27011KT P6SM SKC
     FM262200 34006KT P6SM SKC
     FM270600 28005KT P6SM SKC=

USA.gov is the U.S. government's official web portal to all federal, state and local government web resources and services.